createdAt,value
2023-03-13T00:03:52.554Z,59.06
2023-03-13T00:08:49.497Z,58.62
2023-03-13T00:14:07.484Z,58.57
2023-03-13T00:19:06.986Z,57.63
2023-03-13T00:24:06.380Z,58.90
2023-03-13T00:29:10.049Z,58.48
2023-03-13T00:34:12.102Z,58.42
2023-03-13T00:39:09.663Z,58.74
2023-03-13T00:44:07.664Z,58.81
2023-03-13T00:49:05.281Z,60.17
2023-03-13T00:54:04.567Z,61.12
2023-03-13T00:59:03.068Z,60.75
2023-03-13T01:04:08.253Z,60.33
2023-03-13T01:09:08.674Z,60.40
2023-03-13T01:14:08.790Z,59.63
2023-03-13T01:19:06.896Z,59.89
2023-03-13T01:24:11.475Z,59.89
2023-03-13T01:29:11.349Z,60.42
2023-03-13T01:34:10.916Z,61.10
2023-03-13T01:39:13.076Z,60.72
2023-03-13T01:44:20.591Z,61.06
2023-03-13T01:49:23.486Z,60.45
2023-03-13T01:54:32.228Z,60.02
2023-03-13T01:59:45.782Z,59.60
2023-03-13T02:04:48.292Z,61.32
2023-03-13T02:09:50.553Z,60.80
2023-03-13T02:14:55.012Z,60.64
2023-03-13T02:19:52.467Z,60.79
2023-03-13T02:24:53.956Z,60.86
2023-03-13T02:29:54.696Z,60.85
2023-03-13T02:34:53.373Z,59.78
2023-03-13T02:39:53.594Z,60.98
2023-03-13T02:44:57.735Z,61.20
2023-03-13T02:49:59.324Z,61.29
2023-03-13T02:54:58.751Z,62.14
2023-03-13T02:59:57.458Z,62.27
2023-03-13T03:04:55.755Z,62.38
2023-03-13T03:10:00.599Z,61.88
2023-03-13T03:15:01.341Z,62.57
2023-03-13T03:19:58.481Z,63.61
2023-03-13T03:25:00.816Z,63.38
2023-03-13T03:29:57.909Z,65.49
2023-03-13T03:34:58.904Z,65.73
2023-03-13T03:39:58.209Z,64.76
2023-03-13T03:44:55.175Z,63.85
2023-03-13T03:49:53.070Z,63.53
2023-03-13T03:54:50.678Z,64.36
2023-03-13T03:59:48.696Z,63.30
2023-03-13T04:04:50.783Z,63.74
2023-03-13T04:09:51.977Z,63.75
2023-03-13T04:15:00.964Z,64.14
2023-03-13T04:20:00.188Z,63.24
2023-03-13T04:25:07.359Z,62.72
2023-03-13T04:30:05.428Z,64.01
2023-03-13T04:35:13.607Z,65.17
2023-03-13T04:40:25.689Z,65.85
2023-03-13T04:45:27.575Z,65.95
2023-03-13T04:50:54.754Z,65.28
2023-03-13T04:56:16.998Z,63.63
2023-03-13T05:01:24.942Z,64.60
2023-03-13T05:06:50.982Z,65.06
2023-03-13T05:12:28.069Z,63.66
2023-03-13T05:17:36.580Z,65.06
2023-03-13T05:22:49.629Z,65.28
2023-03-13T05:28:06.516Z,64.74
2023-03-13T05:33:31.709Z,63.81
2023-03-13T05:38:53.685Z,63.26
2023-03-13T05:43:59.752Z,63.81
2023-03-13T05:49:10.675Z,62.95
2023-03-13T05:54:28.729Z,62.47
2023-03-13T05:59:37.672Z,61.93
2023-03-13T06:05:03.885Z,62.29
2023-03-13T06:10:08.913Z,62.81
2023-03-13T06:15:13.274Z,61.23
2023-03-13T06:20:29.646Z,60.88
2023-03-13T06:25:28.349Z,60.04
2023-03-13T06:30:32.681Z,59.56
2023-03-13T06:35:29.772Z,59.97
2023-03-13T06:41:07.362Z,58.86
2023-03-13T06:46:10.235Z,57.54
2023-03-13T06:51:33.118Z,57.42
2023-03-13T06:56:43.500Z,56.59
2023-03-13T07:01:49.385Z,57.43
2023-03-13T07:12:04.204Z,57.54
2023-03-13T07:17:03.108Z,57.67
2023-03-13T07:22:03.296Z,58.10
2023-03-13T07:27:07.476Z,56.99
2023-03-13T07:32:08.050Z,57.23
2023-03-13T07:37:19.246Z,57.30
2023-03-13T07:42:17.866Z,54.37
2023-03-13T07:47:19.026Z,54.72
2023-03-13T07:52:23.976Z,54.66
2023-03-13T07:57:44.801Z,55.24
2023-03-13T08:08:18.565Z,54.81
2023-03-13T08:13:26.113Z,55.80
2023-03-13T08:18:36.239Z,54.94
2023-03-13T08:23:53.473Z,54.42
2023-03-13T08:28:58.827Z,53.68
2023-03-13T08:34:11.534Z,53.18
2023-03-13T08:39:11.368Z,53.27
2023-03-13T08:44:13.616Z,52.45
2023-03-13T08:49:54.102Z,52.03
2023-03-13T08:54:56.000Z,51.16
2023-03-13T09:00:10.983Z,50.70
2023-03-13T09:05:28.944Z,51.57
2023-03-13T09:10:48.954Z,50.60
2023-03-13T09:16:00.595Z,49.58
2023-03-13T09:21:03.626Z,49.68
2023-03-13T09:26:02.448Z,48.55
2023-03-13T09:31:13.437Z,47.04
2023-03-13T09:36:17.188Z,47.31
2023-03-13T09:41:26.592Z,47.01
2023-03-13T09:46:44.052Z,47.34
2023-03-13T09:51:58.227Z,47.05
2023-03-13T09:57:28.623Z,46.48
2023-03-13T10:02:32.804Z,45.25
2023-03-13T10:07:41.436Z,46.06
2023-03-13T10:12:45.663Z,44.85
2023-03-13T10:17:45.998Z,45.54
2023-03-13T10:22:47.890Z,44.43
2023-03-13T10:27:52.331Z,45.18
2023-03-13T10:33:04.716Z,44.12
2023-03-13T10:38:07.440Z,41.92
2023-03-13T10:48:43.453Z,41.37
2023-03-13T10:53:50.472Z,42.06
2023-03-13T10:59:04.413Z,41.18
2023-03-13T11:04:18.751Z,38.64
2023-03-13T11:09:19.395Z,40.09
2023-03-13T11:14:24.216Z,39.01
2023-03-13T11:19:42.041Z,38.01
2023-03-13T11:24:54.160Z,38.64
2023-03-13T11:30:03.960Z,39.15
2023-03-13T11:35:22.128Z,38.38
2023-03-13T11:40:28.518Z,38.40
2023-03-13T11:45:41.102Z,38.83
2023-03-13T11:50:47.884Z,37.43
2023-03-13T11:56:13.488Z,37.56
2023-03-13T12:01:16.506Z,36.54
2023-03-13T12:06:27.994Z,35.31
2023-03-13T12:11:28.046Z,34.57
2023-03-13T12:16:35.462Z,34.10
2023-03-13T12:21:38.641Z,33.43
2023-03-13T12:26:51.703Z,33.79
2023-03-13T12:31:57.376Z,33.83
2023-03-13T12:37:07.669Z,34.61
2023-03-13T12:42:29.968Z,33.35
2023-03-13T12:47:38.843Z,33.19
2023-03-13T12:53:20.443Z,34.02
2023-03-13T12:58:35.633Z,34.46
2023-03-13T13:04:14.841Z,33.59
2023-03-13T13:09:27.928Z,33.76
2023-03-13T13:14:59.982Z,33.42
2023-03-13T13:19:59.476Z,32.10
2023-03-13T13:25:04.431Z,32.95
2023-03-13T13:30:03.770Z,32.34
2023-03-13T13:35:22.110Z,32.43
2023-03-13T13:40:28.572Z,33.44
2023-03-13T13:45:36.930Z,31.79
2023-03-13T13:51:39.834Z,32.34
2023-03-13T13:56:59.658Z,32.47
2023-03-13T14:02:25.669Z,32.17
2023-03-13T14:07:48.305Z,32.91
2023-03-13T14:12:55.815Z,32.55
2023-03-13T14:18:00.565Z,33.13
2023-03-13T14:23:03.401Z,33.25
2023-03-13T14:28:08.681Z,31.84
2023-03-13T14:33:17.375Z,32.38
2023-03-13T14:38:17.937Z,32.50
2023-03-13T14:43:21.729Z,33.21
2023-03-13T14:48:25.313Z,32.61
2023-03-13T14:53:35.263Z,31.45
2023-03-13T14:58:34.274Z,32.83
2023-03-13T15:03:32.169Z,32.88
2023-03-13T15:08:35.272Z,33.27
2023-03-13T15:13:40.258Z,34.13
2023-03-13T15:18:43.563Z,34.17
2023-03-13T15:24:04.403Z,34.46
2023-03-13T15:29:58.851Z,33.70
2023-03-13T15:35:02.842Z,34.47
2023-03-13T15:40:07.411Z,34.33
2023-03-13T15:45:07.478Z,35.12
2023-03-13T15:50:11.763Z,33.82
2023-03-13T15:55:13.581Z,33.97
2023-03-13T16:00:23.909Z,33.83
2023-03-13T16:05:41.660Z,33.75
2023-03-13T16:10:49.482Z,33.89
2023-03-13T16:16:19.437Z,33.26
2023-03-13T16:21:50.087Z,33.45
2023-03-13T16:27:25.425Z,34.41
2023-03-13T16:32:37.942Z,34.38
2023-03-13T16:37:38.989Z,33.98
2023-03-13T16:42:36.204Z,33.27
2023-03-13T16:47:35.236Z,33.59
2023-03-13T16:52:32.249Z,33.74
2023-03-13T16:57:29.952Z,33.42
2023-03-13T17:02:32.259Z,33.62
2023-03-13T17:07:41.154Z,33.56
2023-03-13T17:12:38.829Z,33.91
2023-03-13T17:17:36.716Z,33.90
2023-03-13T17:22:34.391Z,33.86
2023-03-13T17:27:41.696Z,33.31
2023-03-13T17:33:15.050Z,32.96
2023-03-13T17:38:15.030Z,33.28
2023-03-13T17:43:14.457Z,33.37
2023-03-13T17:48:16.540Z,33.14
2023-03-13T17:53:13.638Z,33.41
2023-03-13T17:58:25.726Z,33.97
2023-03-13T18:03:23.844Z,34.20
2023-03-13T18:08:23.742Z,34.41
2023-03-13T18:13:22.663Z,34.30
2023-03-13T18:18:22.533Z,34.64
2023-03-13T18:23:24.364Z,34.84
2023-03-13T18:28:23.481Z,34.35
2023-03-13T18:33:20.405Z,34.56
2023-03-13T18:38:18.657Z,34.65
2023-03-13T18:43:15.518Z,34.52
2023-03-13T18:48:23.303Z,34.28
2023-03-13T18:53:27.077Z,33.96
2023-03-13T18:58:24.317Z,34.11
2023-03-13T19:03:30.183Z,34.07
2023-03-13T19:08:45.460Z,34.02
2023-03-13T19:13:44.260Z,33.95
2023-03-13T19:18:45.216Z,34.20
2023-03-13T19:23:43.221Z,34.43
2023-03-13T19:28:40.065Z,34.46
2023-03-13T19:33:50.252Z,34.31
2023-03-13T19:38:51.202Z,34.08
2023-03-13T19:43:49.303Z,34.82
2023-03-13T19:48:48.116Z,36.12
2023-03-13T19:53:45.046Z,36.39
2023-03-13T19:58:43.729Z,35.55
2023-03-13T20:03:42.474Z,36.51
2023-03-13T20:08:39.347Z,37.54
2023-03-13T20:13:36.289Z,37.77
2023-03-13T20:18:38.024Z,38.15
2023-03-13T20:23:35.051Z,38.50
2023-03-13T20:28:36.327Z,39.25
2023-03-13T20:33:37.128Z,39.51
2023-03-13T20:38:37.769Z,39.65
2023-03-13T20:43:37.821Z,40.04
2023-03-13T20:48:38.459Z,40.55
2023-03-13T20:53:36.083Z,41.06
2023-03-13T20:58:35.266Z,40.67
2023-03-13T21:03:38.977Z,40.60
2023-03-13T21:08:38.562Z,41.07
2023-03-13T21:13:35.606Z,41.53
2023-03-13T21:18:36.621Z,41.78
2023-03-13T21:23:39.340Z,42.45
2023-03-13T21:28:37.397Z,42.29
2023-03-13T21:33:34.075Z,42.48
2023-03-13T21:38:41.257Z,42.82
2023-03-13T21:43:40.906Z,42.72
2023-03-13T21:48:41.979Z,43.26
2023-03-13T21:53:45.136Z,44.14
2023-03-13T21:58:42.209Z,44.09
2023-03-13T22:03:39.365Z,45.22
2023-03-13T22:08:40.743Z,45.49
2023-03-13T22:13:40.221Z,45.49
2023-03-13T22:18:37.254Z,45.91
2023-03-13T22:23:34.316Z,46.29
2023-03-13T22:28:33.108Z,46.29
2023-03-13T22:33:31.216Z,46.30
2023-03-13T22:38:38.281Z,46.33
2023-03-13T22:43:37.936Z,46.79
2023-03-13T22:48:35.763Z,46.67
2023-03-13T22:53:35.461Z,46.83
2023-03-13T22:58:33.199Z,46.84
2023-03-13T23:03:30.060Z,47.30
2023-03-13T23:08:27.538Z,46.57
2023-03-13T23:13:24.450Z,46.47
2023-03-13T23:18:23.740Z,46.80
2023-03-13T23:23:20.700Z,46.37
2023-03-13T23:28:20.663Z,46.00
2023-03-13T23:33:17.488Z,45.85
2023-03-13T23:38:17.860Z,45.21
2023-03-13T23:43:17.356Z,43.18
2023-03-13T23:48:15.218Z,43.82
2023-03-13T23:53:13.279Z,45.38
2023-03-13T23:58:12.776Z,44.91
